Portada
METAR-TAF:

METAR-TAF

Aeroports :

Malé, Maldives

latitud: 04-12N, longitud: 073-32E, altitud: 2 m

Observació

L'informe es va fer fa 1 hora i 3 minuts, a les 18:00 UTC
Vent 3 kt del Est/Nord-Est
Temperatura 27°C
Humitat 89%
Pressió 1011 hPa
Visibilitat 10 km o més
Escasses núvols a una alçada de 1800 ft, Cumulus congestus.
Cel ennuvolat a una alçada de 27000 ft

METAR: VRMM 181800Z 06003KT 9999 FEW018TCU BKN270 27/25 Q1011 TEMPO 5000 -SHRA

Hora: 00:03 (19:03 UTC)

Pronòstic

L'informe es va fer fa 2 hores i 3 minuts, a les 17:00 UTC
Pronòstic vàlid del 18 a les 18 UTC al 19 a les 24 UTC
Vent 8 kt del Est
Visibilitat 10 km o més
Temporalment
l' 18 a les 18 UTC al 18 a les 24 UTC
Visibilitat: 4000 m
Escasses núvols a una alçada de 1700 ft, Cumulonimbus.
tempesta, pluja

TAF: VRMM 181700Z 1818/1924 09008KT 9999 FEW0187CU TEMPO 1818/1824 4000 TSRA FEW017CB

Observacions i pronòstics meteorològics de més de 4000 aeroports (METAR i TAF).

Les estacions disponibles són els punts grocs i vermells al mapa.

Posi el ratolí al punt desitjat per veure el nom de l'estació.

Feu clic per veure les observacions i els pronòstics meteorològics.

Per canviar el mapa: feu clic els botons verds amb una creu de color negre per apropar; al botó verd amb un guió per allunyar la imatge; o en les fletxes verdes per a mapes adjacents.


METAR-TAF: